createdAt,value
2019-02-11T00:01:14.048Z,82.83
2019-02-11T00:04:17.165Z,82.04
2019-02-11T00:07:20.231Z,81.37
2019-02-11T00:10:23.298Z,81.36
2019-02-11T00:13:26.359Z,81.12
2019-02-11T00:16:29.531Z,81.95
2019-02-11T00:19:32.633Z,81.02
2019-02-11T00:22:35.838Z,81.35
2019-02-11T00:25:39.016Z,81.70
2019-02-11T00:28:42.107Z,81.56
2019-02-11T00:31:45.172Z,80.78
2019-02-11T00:34:48.239Z,80.27
2019-02-11T00:37:51.389Z,78.71
2019-02-11T00:40:54.481Z,79.45
2019-02-11T00:43:57.576Z,80.23
2019-02-11T00:47:00.672Z,78.74
2019-02-11T00:50:03.824Z,75.39
2019-02-11T00:53:06.891Z,76.75
2019-02-11T00:56:10.036Z,77.12
2019-02-11T00:59:13.149Z,75.44
2019-02-11T01:02:16.235Z,75.27
2019-02-11T01:05:19.330Z,75.39
2019-02-11T01:08:22.399Z,74.71
2019-02-11T01:11:25.498Z,74.51
2019-02-11T01:14:28.587Z,73.86
2019-02-11T01:17:31.667Z,74.83
2019-02-11T01:20:34.791Z,74.04
2019-02-11T01:23:37.970Z,74.00
2019-02-11T01:26:41.070Z,74.30
2019-02-11T01:29:44.150Z,73.98
2019-02-11T01:32:47.237Z,73.65
2019-02-11T01:35:50.304Z,74.26
2019-02-11T01:38:53.411Z,74.70
2019-02-11T01:41:56.511Z,74.88
2019-02-11T01:44:59.614Z,75.79
2019-02-11T01:48:02.687Z,75.68
2019-02-11T01:51:05.798Z,78.84
2019-02-11T01:54:08.888Z,80.54
2019-02-11T01:57:11.982Z,80.63
2019-02-11T02:00:15.084Z,81.25
2019-02-11T02:03:18.160Z,81.00
2019-02-11T02:06:21.255Z,80.78
2019-02-11T02:09:24.339Z,78.55
2019-02-11T02:12:27.447Z,77.82
2019-02-11T02:15:30.525Z,78.20
2019-02-11T02:18:33.611Z,77.98
2019-02-11T02:21:36.707Z,77.28
2019-02-11T02:24:39.768Z,76.31
2019-02-11T02:27:42.911Z,75.93
2019-02-11T02:30:46.000Z,76.24
2019-02-11T02:33:49.091Z,75.87
2019-02-11T02:36:52.184Z,75.77
2019-02-11T02:39:55.241Z,74.85
2019-02-11T02:42:58.575Z,74.60
2019-02-11T02:46:01.619Z,74.53
2019-02-11T02:49:04.756Z,74.29
2019-02-11T02:52:07.840Z,75.12
2019-02-11T02:55:10.970Z,74.87
2019-02-11T02:58:14.132Z,74.07
2019-02-11T03:01:17.222Z,74.24
2019-02-11T03:04:20.279Z,74.43
2019-02-11T03:07:23.332Z,74.47
2019-02-11T03:10:26.528Z,74.46
2019-02-11T03:13:29.575Z,74.82
2019-02-11T03:16:32.651Z,74.98
2019-02-11T03:19:35.763Z,75.17
2019-02-11T03:22:38.856Z,74.96
2019-02-11T03:25:42.593Z,74.75
2019-02-11T03:28:45.761Z,74.88
2019-02-11T03:31:48.845Z,74.68
2019-02-11T03:34:51.951Z,74.56
2019-02-11T03:37:55.028Z,74.55
2019-02-11T03:40:58.134Z,74.83
2019-02-11T03:44:01.227Z,75.32
2019-02-11T03:47:04.306Z,74.70
2019-02-11T03:50:07.812Z,74.16
2019-02-11T03:53:10.872Z,74.25
2019-02-11T03:56:13.992Z,74.66
2019-02-11T03:59:17.083Z,74.65
2019-02-11T04:02:20.195Z,74.59
2019-02-11T04:05:23.396Z,74.48
2019-02-11T04:08:26.480Z,74.92
2019-02-11T04:11:29.566Z,74.78
2019-02-11T04:14:32.659Z,74.43
2019-02-11T04:17:35.749Z,74.64
2019-02-11T04:20:38.907Z,74.88
2019-02-11T04:23:42.030Z,75.56
2019-02-11T04:26:45.120Z,74.51
2019-02-11T04:29:48.220Z,74.41
2019-02-11T04:32:51.370Z,75.08
2019-02-11T04:35:54.383Z,74.79
2019-02-11T04:38:57.499Z,75.79
2019-02-11T04:42:00.559Z,75.03
2019-02-11T04:45:03.919Z,75.04
2019-02-11T04:48:07.075Z,74.82
2019-02-11T04:51:10.155Z,74.84
2019-02-11T04:54:13.254Z,74.57
2019-02-11T04:57:16.346Z,74.69
2019-02-11T05:00:19.469Z,74.27
2019-02-11T05:03:22.644Z,73.99
2019-02-11T05:06:25.834Z,74.13
2019-02-11T05:09:28.918Z,73.61
2019-02-11T05:12:31.997Z,73.14
2019-02-11T05:15:35.107Z,73.10
2019-02-11T05:18:38.210Z,73.82
2019-02-11T05:21:41.292Z,73.93
2019-02-11T05:24:44.377Z,73.78
2019-02-11T05:27:47.464Z,73.08
2019-02-11T05:30:50.551Z,73.77
2019-02-11T05:33:53.660Z,73.70
2019-02-11T05:36:56.749Z,73.93
2019-02-11T05:39:59.851Z,74.28
2019-02-11T05:43:02.939Z,74.24
2019-02-11T05:46:06.026Z,74.84
2019-02-11T05:49:09.126Z,74.78
2019-02-11T05:52:12.329Z,74.74
2019-02-11T05:55:15.404Z,74.36
2019-02-11T05:58:18.456Z,74.56
2019-02-11T06:01:21.584Z,74.48
2019-02-11T06:04:24.656Z,74.84
2019-02-11T06:07:27.792Z,74.66
2019-02-11T06:10:31.962Z,74.27
2019-02-11T06:13:35.085Z,74.11
2019-02-11T06:16:38.263Z,74.60
2019-02-11T06:19:41.333Z,73.90
2019-02-11T06:22:44.456Z,73.67
2019-02-11T06:25:47.538Z,73.85
2019-02-11T06:28:50.627Z,74.19
2019-02-11T06:31:53.738Z,73.64
2019-02-11T06:34:57.186Z,73.64
2019-02-11T06:38:00.264Z,73.80
2019-02-11T06:41:03.424Z,73.16
2019-02-11T06:44:06.519Z,73.56
2019-02-11T06:47:09.717Z,73.87
2019-02-11T06:50:13.260Z,73.16
2019-02-11T06:53:16.345Z,73.15
2019-02-11T06:56:19.500Z,73.57
2019-02-11T06:59:22.591Z,74.17
2019-02-11T07:02:25.788Z,74.36
2019-02-11T07:05:28.876Z,73.94
2019-02-11T07:08:31.989Z,74.00
2019-02-11T07:11:35.053Z,74.20
2019-02-11T07:14:38.149Z,74.62
2019-02-11T07:17:41.199Z,74.30
2019-02-11T07:20:44.321Z,73.93
2019-02-11T07:23:47.432Z,73.75
2019-02-11T07:26:50.511Z,73.61
2019-02-11T07:29:53.612Z,74.38
2019-02-11T07:32:56.711Z,73.75
2019-02-11T07:35:59.808Z,73.79
2019-02-11T07:39:03.028Z,73.50
2019-02-11T07:42:12.374Z,73.46
2019-02-11T07:45:29.705Z,73.54
2019-02-11T07:48:24.643Z,73.68
2019-02-11T07:51:27.752Z,73.96
2019-02-11T07:54:30.833Z,73.90
2019-02-11T07:57:33.962Z,73.37
2019-02-11T08:00:37.139Z,73.41
2019-02-11T08:03:40.324Z,73.07
2019-02-11T08:06:43.395Z,72.47
2019-02-11T08:09:46.508Z,72.72
2019-02-11T08:12:49.699Z,72.01
2019-02-11T08:15:52.795Z,72.56
2019-02-11T08:18:55.892Z,72.50
2019-02-11T08:21:59.011Z,72.17
2019-02-11T08:25:02.200Z,72.15
2019-02-11T08:28:05.393Z,72.23
2019-02-11T08:31:08.467Z,72.14
2019-02-11T08:34:11.649Z,71.80
2019-02-11T08:37:14.748Z,71.51
2019-02-11T08:40:17.845Z,71.18
2019-02-11T08:43:21.031Z,71.25
2019-02-11T08:46:24.147Z,71.25
2019-02-11T08:49:27.315Z,71.05
2019-02-11T08:52:30.409Z,70.58
2019-02-11T08:55:33.476Z,70.86
2019-02-11T08:58:36.621Z,70.96
2019-02-11T09:01:39.808Z,70.90
2019-02-11T09:04:42.991Z,70.59
2019-02-11T09:07:46.118Z,70.54
2019-02-11T09:10:49.270Z,70.01
2019-02-11T09:13:52.324Z,70.32
2019-02-11T09:16:55.400Z,69.84
2019-02-11T09:19:58.475Z,70.26
2019-02-11T09:23:01.639Z,68.63
2019-02-11T09:26:04.752Z,67.64
2019-02-11T09:29:07.808Z,66.86
2019-02-11T09:32:10.887Z,66.15
2019-02-11T09:35:13.961Z,66.72
2019-02-11T09:38:17.093Z,64.61
2019-02-11T09:41:20.170Z,65.18
2019-02-11T09:44:29.481Z,65.10
2019-02-11T09:47:27.283Z,64.55
2019-02-11T09:50:34.392Z,64.57
2019-02-11T09:53:37.572Z,64.83
2019-02-11T09:56:40.660Z,64.30
2019-02-11T09:59:43.768Z,62.10
2019-02-11T10:02:46.924Z,62.60
2019-02-11T10:05:49.980Z,62.94
2019-02-11T10:08:53.135Z,63.01
2019-02-11T10:11:56.215Z,63.25
2019-02-11T10:14:59.320Z,62.55
2019-02-11T10:18:02.528Z,62.90
2019-02-11T10:21:05.695Z,63.26
2019-02-11T10:24:08.799Z,63.04
2019-02-11T10:27:11.862Z,64.48
2019-02-11T10:30:15.035Z,65.48
2019-02-11T10:33:18.130Z,64.49
2019-02-11T10:36:21.281Z,64.41
2019-02-11T10:39:24.356Z,64.30
2019-02-11T10:42:27.472Z,64.21
2019-02-11T10:45:36.491Z,65.61
2019-02-11T10:48:33.742Z,65.26
2019-02-11T10:51:36.844Z,65.68
2019-02-11T10:54:40.020Z,66.43
2019-02-11T10:57:43.407Z,66.24
2019-02-11T11:00:46.544Z,66.36
2019-02-11T11:03:49.728Z,66.18
2019-02-11T11:06:52.916Z,66.90
2019-02-11T11:09:55.987Z,66.96
2019-02-11T11:12:59.060Z,67.11
2019-02-11T11:16:02.417Z,66.91
2019-02-11T11:19:05.488Z,67.69
2019-02-11T11:22:08.592Z,68.76
2019-02-11T11:25:11.672Z,69.76
2019-02-11T11:28:14.740Z,70.24
2019-02-11T11:31:17.816Z,71.90
2019-02-11T11:34:20.875Z,73.89
2019-02-11T11:37:24.012Z,74.80
2019-02-11T11:40:27.166Z,73.92
2019-02-11T11:43:30.245Z,71.49
2019-02-11T11:46:45.592Z,71.53
2019-02-11T11:49:36.477Z,68.89
2019-02-11T11:52:39.582Z,66.66
2019-02-11T11:55:42.681Z,65.91
2019-02-11T11:58:45.783Z,65.02
2019-02-11T12:01:48.853Z,64.60
2019-02-11T12:04:51.912Z,64.38
2019-02-11T12:07:55.056Z,64.00
2019-02-11T12:10:58.133Z,62.98
2019-02-11T12:14:01.248Z,63.17
2019-02-11T12:17:04.331Z,61.21
2019-02-11T12:20:08.800Z,63.58
2019-02-11T12:23:12.007Z,61.91
2019-02-11T12:26:15.060Z,63.03
2019-02-11T12:29:18.124Z,62.19
2019-02-11T12:32:21.217Z,62.58
2019-02-11T12:35:24.282Z,63.38
2019-02-11T12:38:27.399Z,63.27
2019-02-11T12:41:30.451Z,63.34
2019-02-11T12:44:33.571Z,64.77
2019-02-11T12:47:36.668Z,63.88
2019-02-11T12:50:39.758Z,63.89
2019-02-11T12:53:42.858Z,62.85
2019-02-11T12:56:45.929Z,63.75
2019-02-11T12:59:49.059Z,64.01
2019-02-11T13:02:52.136Z,64.12
2019-02-11T13:05:55.253Z,63.48
2019-02-11T13:08:58.349Z,64.18
2019-02-11T13:12:01.409Z,64.04
2019-02-11T13:15:04.891Z,63.56
2019-02-11T13:18:08.113Z,63.95
2019-02-11T13:21:11.629Z,64.00
2019-02-11T13:24:14.192Z,63.53
2019-02-11T13:27:17.245Z,63.54
2019-02-11T13:30:20.573Z,63.91
2019-02-11T13:33:23.626Z,63.30
2019-02-11T13:36:26.771Z,63.65
2019-02-11T13:39:29.859Z,63.37
2019-02-11T13:42:32.960Z,63.75
2019-02-11T13:45:36.044Z,63.51
2019-02-11T13:48:39.178Z,63.61
2019-02-11T13:51:42.364Z,63.56
2019-02-11T13:54:45.489Z,61.80
2019-02-11T13:57:48.690Z,61.38
2019-02-11T14:00:51.749Z,61.77
2019-02-11T14:03:54.894Z,62.54
2019-02-11T14:06:57.989Z,62.83
2019-02-11T14:10:02.550Z,63.71
2019-02-11T14:13:04.222Z,64.04
2019-02-11T14:16:07.255Z,68.59
2019-02-11T14:19:10.351Z,75.30
2019-02-11T14:22:13.471Z,77.96
2019-02-11T14:25:16.550Z,81.92
2019-02-11T14:28:19.736Z,83.76
2019-02-11T14:31:22.820Z,85.40
2019-02-11T14:34:25.941Z,84.31
2019-02-11T14:37:29.015Z,85.52
2019-02-11T14:40:32.133Z,84.48
2019-02-11T14:43:35.295Z,82.31
2019-02-11T14:46:38.398Z,80.51
2019-02-11T14:49:41.477Z,78.07
2019-02-11T14:52:44.569Z,78.28
2019-02-11T14:55:47.783Z,76.21
2019-02-11T14:58:50.916Z,75.47
2019-02-11T15:01:54.046Z,75.18
2019-02-11T15:04:57.156Z,75.33
2019-02-11T15:08:00.215Z,74.63
2019-02-11T15:11:03.341Z,74.88
2019-02-11T15:14:06.426Z,73.47
2019-02-11T15:17:09.524Z,74.02
2019-02-11T15:20:13.768Z,73.61
2019-02-11T15:23:16.833Z,72.94
2019-02-11T15:26:19.935Z,72.62
2019-02-11T15:29:23.116Z,73.37
2019-02-11T15:32:26.431Z,73.21
2019-02-11T15:35:29.506Z,72.63
2019-02-11T15:38:32.576Z,73.02
2019-02-11T15:41:35.695Z,72.54
2019-02-11T15:44:38.800Z,73.33
2019-02-11T15:47:41.979Z,73.38
2019-02-11T15:50:45.078Z,73.12
2019-02-11T15:53:48.241Z,73.36
2019-02-11T15:56:51.335Z,74.58
2019-02-11T15:59:54.452Z,74.17
2019-02-11T16:02:57.537Z,74.85
2019-02-11T16:06:10.272Z,74.83
2019-02-11T16:09:05.130Z,74.93
2019-02-11T16:12:08.376Z,74.89
2019-02-11T16:15:11.380Z,74.93
2019-02-11T16:18:14.523Z,74.53
2019-02-11T16:21:17.589Z,74.60
2019-02-11T16:24:20.714Z,75.00
2019-02-11T16:27:23.803Z,74.89
2019-02-11T16:30:27.079Z,74.83
2019-02-11T16:33:30.193Z,75.01
2019-02-11T16:36:33.283Z,75.05
2019-02-11T16:39:36.369Z,75.37
2019-02-11T16:42:39.468Z,75.52
2019-02-11T16:45:42.570Z,74.69
2019-02-11T16:48:45.636Z,75.06
2019-02-11T16:51:48.704Z,74.98
2019-02-11T16:54:51.853Z,74.55
2019-02-11T16:57:55.084Z,74.48
2019-02-11T17:00:58.247Z,73.42
2019-02-11T17:04:01.343Z,73.97
2019-02-11T17:07:04.408Z,73.28
2019-02-11T17:10:08.511Z,73.79
2019-02-11T17:13:11.607Z,73.06
2019-02-11T17:16:14.697Z,72.99
2019-02-11T17:19:17.805Z,73.88
2019-02-11T17:22:20.928Z,73.10
2019-02-11T17:25:24.094Z,72.75
2019-02-11T17:28:27.252Z,72.92
2019-02-11T17:31:30.316Z,72.66
2019-02-11T17:34:33.455Z,73.20
2019-02-11T17:37:36.604Z,73.61
2019-02-11T17:40:39.779Z,74.13
2019-02-11T17:43:42.951Z,74.41
2019-02-11T17:46:46.076Z,74.66
2019-02-11T17:49:49.240Z,74.55
2019-02-11T17:52:53.064Z,74.33
2019-02-11T17:55:56.271Z,75.11
2019-02-11T17:58:59.445Z,74.65
2019-02-11T18:02:02.596Z,73.81
2019-02-11T18:05:05.664Z,74.00
2019-02-11T18:08:08.720Z,74.39
2019-02-11T18:11:11.803Z,74.87
2019-02-11T18:14:18.291Z,74.41
2019-02-11T18:17:21.359Z,74.91
2019-02-11T18:20:24.457Z,74.98
2019-02-11T18:23:27.576Z,74.65
2019-02-11T18:26:30.923Z,75.71
2019-02-11T18:29:34.062Z,75.52
2019-02-11T18:32:37.240Z,75.67
2019-02-11T18:35:40.372Z,77.03
2019-02-11T18:38:43.540Z,78.70
2019-02-11T18:41:46.629Z,80.29
2019-02-11T18:44:49.716Z,80.64
2019-02-11T18:47:52.807Z,80.49
2019-02-11T18:50:56.035Z,80.40
2019-02-11T18:53:59.188Z,79.75
2019-02-11T18:57:02.292Z,79.65
2019-02-11T19:00:05.872Z,77.93
2019-02-11T19:03:08.992Z,79.34
2019-02-11T19:06:12.070Z,79.64
2019-02-11T19:09:16.877Z,80.71
2019-02-11T19:12:20.021Z,82.32
2019-02-11T19:15:23.207Z,82.67
2019-02-11T19:18:26.382Z,82.99
2019-02-11T19:21:29.471Z,83.74
2019-02-11T19:24:32.575Z,84.26
2019-02-11T19:27:35.632Z,84.47
2019-02-11T19:30:38.761Z,84.37
2019-02-11T19:33:41.879Z,84.10
2019-02-11T19:36:45.088Z,84.47
2019-02-11T19:39:48.190Z,84.39
2019-02-11T19:42:51.335Z,84.74
2019-02-11T19:45:54.420Z,84.97
2019-02-11T19:48:57.504Z,85.39
2019-02-11T19:52:00.628Z,84.28
2019-02-11T19:55:03.810Z,85.90
2019-02-11T19:58:06.877Z,86.10
2019-02-11T20:01:09.977Z,86.35
2019-02-11T20:04:13.068Z,86.65
2019-02-11T20:07:17.083Z,87.65
2019-02-11T20:10:20.227Z,88.08
2019-02-11T20:13:23.367Z,87.18
2019-02-11T20:16:26.439Z,88.34
2019-02-11T20:19:29.551Z,87.52
2019-02-11T20:22:32.639Z,87.60
2019-02-11T20:25:35.704Z,88.07
2019-02-11T20:28:38.892Z,87.27
2019-02-11T20:31:42.039Z,87.33
2019-02-11T20:34:45.111Z,87.82
2019-02-11T20:37:48.243Z,88.25
2019-02-11T20:40:51.443Z,88.54
2019-02-11T20:43:54.508Z,86.77
2019-02-11T20:46:57.611Z,88.21
2019-02-11T20:50:08.646Z,88.32
2019-02-11T20:53:03.900Z,87.71
2019-02-11T20:56:07.155Z,88.48
2019-02-11T20:59:10.256Z,88.38
2019-02-11T21:02:13.343Z,88.18
2019-02-11T21:05:16.412Z,87.15
2019-02-11T21:08:19.497Z,87.93
2019-02-11T21:11:22.654Z,87.06
2019-02-11T21:14:25.775Z,87.20
2019-02-11T21:17:28.850Z,87.64
2019-02-11T21:20:34.526Z,88.11
2019-02-11T21:23:37.583Z,88.12
2019-02-11T21:26:40.788Z,87.30
2019-02-11T21:29:43.869Z,87.10
2019-02-11T21:32:46.984Z,86.77
2019-02-11T21:35:50.654Z,88.84
2019-02-11T21:38:53.777Z,89.14
2019-02-11T21:41:56.922Z,90.79
2019-02-11T21:45:00.156Z,89.92
2019-02-11T21:48:03.227Z,89.22
2019-02-11T21:51:06.332Z,88.85
2019-02-11T21:54:09.508Z,89.23
2019-02-11T21:57:12.619Z,89.53
2019-02-11T22:00:17.207Z,89.89
2019-02-11T22:03:20.351Z,90.44
2019-02-11T22:06:23.509Z,91.54
2019-02-11T22:09:26.665Z,91.44
2019-02-11T22:12:30.720Z,90.22
2019-02-11T22:15:33.825Z,89.65
2019-02-11T22:18:36.913Z,89.14
2019-02-11T22:21:39.995Z,88.99
2019-02-11T22:24:43.088Z,88.94
2019-02-11T22:27:46.188Z,88.74
2019-02-11T22:30:49.291Z,89.02
2019-02-11T22:33:52.352Z,90.17
2019-02-11T22:36:55.527Z,90.66
2019-02-11T22:39:59.496Z,90.73
2019-02-11T22:43:02.684Z,91.29
2019-02-11T22:46:05.764Z,92.14
2019-02-11T22:49:09.091Z,92.94
2019-02-11T22:52:12.244Z,94.97
2019-02-11T22:55:15.346Z,96.60
2019-02-11T22:58:18.431Z,97.00
2019-02-11T23:01:21.516Z,95.98
2019-02-11T23:04:24.715Z,96.59
2019-02-11T23:07:27.860Z,94.71
2019-02-11T23:10:31.044Z,94.35
2019-02-11T23:13:34.203Z,94.44
2019-02-11T23:16:38.701Z,93.85
2019-02-11T23:19:40.373Z,92.94
2019-02-11T23:22:43.472Z,92.63
2019-02-11T23:25:46.556Z,92.65
2019-02-11T23:28:49.656Z,92.25
2019-02-11T23:31:52.759Z,91.22
2019-02-11T23:34:55.852Z,90.55
2019-02-11T23:37:58.916Z,90.42
2019-02-11T23:41:02.041Z,90.22
2019-02-11T23:44:05.256Z,90.38
2019-02-11T23:47:08.426Z,90.36
2019-02-11T23:50:11.516Z,90.21
2019-02-11T23:53:14.606Z,89.92
2019-02-11T23:56:17.656Z,88.99
2019-02-11T23:59:20.737Z,88.52
